Tiempo atmosférico en la estación meteorológica de La Oliva, Las Palmas (217 m.)



Fecha
DESCASC
Temp. máxima en grados centígrados (hora)
DESCASC
Temp. mínima en grados centígrados (hora)
DESCASC
Temp. media en grados centígrados
DESCASC
Racha de viento máxima en m/sg (hora)
DESCASC
Velocidad máxima media en intervalos de 10 minutos(hora)
DESCASC
Precipitaciones diarias en mm
DESCASC
Precipitaciones de 00:00 a 06:00 en mm
DESCASC
Precipitaciones de 06:00 a 12:00 en mm
DESCASC
Precipitaciones de 12:00 a 18:00 en mm
DESCASC
Precipitaciones de 18:00 a 24:00 en mm
DESCASC
26-11-2020 18.1 (09:50) 12.4 (20:30) 15.3 19.44 (13:20) 11.11 (16:00) 4 0.4 3.2 0 0.4
25-11-2020 22.6 (12:10) 13.4 (05:50) 18 12.5 (18:40) 7.78 (17:20) 0 0 0 0 0
24-11-2020 23.3 (16:10) 16 (22:50) 19.6 9.17 (11:00) 6.39 (11:00) 0 0 0 0 0
23-11-2020 24.3 (14:10) 17 (05:30) 20.6 11.11 (00:40) 7.22 (08:40) 0 0 0 0 0
22-11-2020 22.3 (13:40) 16.2 (00:00) 19.3 8.89 (07:30) 6.11 (07:50) 0 0 0 0 0
21-11-2020 24.7 (13:20) 16.8 (00:00) 20.8 10 (15:40) 6.39 (14:10) 0 0 0 0 0
20-11-2020 24.7 (14:30) 17.4 (00:00) 21.1 15.56 (13:10) 10.83 (12:20) 0 0 0 0 0
19-11-2020 23.1 (12:00) 17.8 (00:00) 20.4 9.17 (14:30) 6.11 (14:20) 0 0 0 0 0
18-11-2020 31.7 (13:20) 18.9 (00:00) 25.3 10.83 (15:30) 5.28 (15:30) 0 0 0 0 0
17-11-2020 30.4 (16:40) 20.4 (00:00) 25.4 6.94 (03:30) 5 (04:00) 0 0 0 0 0
16-11-2020 31.3 (14:00) 20.1 (00:00) 25.7 9.17 (10:40) 6.39 (12:20) 0 0 0 0 0
15-11-2020 29.2 (12:20) 18 (00:00) 23.6 5 (00:50) 3.06 (23:40) 0 0 0 0 0
14-11-2020 31.5 (15:30) 20 (00:00) 25.8 15.83 (09:50) 10.56 (09:10) 0 0 0 0 0
13-11-2020 22.9 (13:10) 18.2 (00:00) 20.6 13.33 (19:10) 8.89 (19:10) 0 0 0 0 0
12-11-2020 23.8 (14:20) 16.1 (00:00) 19.9 6.39 (23:40) 3.89 (23:40) 0 0 0 0 0
11-11-2020 24 (14:10) 16 (00:00) 20 7.22 (08:20) 4.72 (09:20) 0 0 0 0 0
10-11-2020 21.4 (12:10) 17.1 (00:00) 19.3 11.39 (11:30) 7.22 (11:10) 0 0 0 0 0
09-11-2020 22.1 (14:20) 13.5 (00:00) 17.8 9.17 (18:10) 6.11 (17:40) 0 0 0 0 0
08-11-2020 22.2 (15:20) 15 (00:00) 18.6 7.5 (12:30) 3.61 (13:50) 0 0 0 0 0
07-11-2020 23.2 (12:30) 13.9 (00:00) 18.6 7.5 (13:50) 4.72 (13:50) 0 0 0 0 0
06-11-2020 23.2 (12:10) 15.7 (00:00) 19.5 16.67 (11:50) 12.22 (11:40) 0 0 0 0 0
05-11-2020 23.2 (13:30) 12.7 (00:00) 18 8.61 (14:30) 5.83 (14:00) 0 0 0 0 0
04-11-2020 20.4 (11:00) 16.7 (00:00) 18.6 11.11 (01:00) 7.22 (00:30) 0 0 0 0 0
03-11-2020 22.4 (13:00) 16.4 (00:00) 19.4 11.39 (23:20) 7.5 (23:20) 0 0 0 0 0
02-11-2020 22.7 (13:10) 15.8 (00:00) 19.3 6.94 (16:30) 4.72 (10:20) 0 0 0 0 0
01-11-2020 26.6 (13:00) 18.3 (00:00) 22.4 12.78 (11:20) 8.33 (11:00) 0 0 0 0 0
31-10-2020 28.2 (15:30) 19.3 (00:00) 23.8 11.94 (00:30) 7.78 (06:00) 0 0 0 0 0
30-10-2020 27.1 (13:20) 17.3 (00:00) 22.2 14.72 (13:20) 9.44 (13:00) 0 0 0 0 0

Gráficas

Temp. máximas Temp. mínimas Temp. medias Precipitaciones Rachas de viento máximas Velocidades máximas media en intervalos de 10 minutos

Datos horarios

Fecha y hora oficial Temperatura (ºC) Velocidad del viento (km/h) Dirección del viento Racha (km/h) Dirección de racha Precipitación (mm) Presión (hPa) Tendencia (hPa) Humedad (%)
2020-11-28 23:00:00 16.3 15 Oeste 28 Oeste 0 -- -- 79
2020-11-28 22:00:00 16.3 14 Oeste 21 Oeste 0 -- -- 81
2020-11-28 21:00:00 16 11 Oeste 17 Oeste 0 -- -- 85
2020-11-28 20:00:00 16 10 Oeste 14 Oeste 0 -- -- 84
2020-11-28 19:00:00 16.6 10 Noroeste 20 Noroeste 0 -- -- 83
2020-11-28 18:00:00 17.4 13 Noroeste 24 Oeste 0 -- -- 78
2020-11-28 17:00:00 18.8 17 Oeste 29 Oeste 0 -- -- 71
2020-11-28 16:00:00 18.8 21 Noroeste 30 Oeste 0 -- -- 73
2020-11-28 15:00:00 19.2 15 Oeste 26 Oeste 0 -- -- 78
2020-11-28 14:00:00 20.1 18 Noroeste 31 Oeste 0 -- -- 68
2020-11-28 13:00:00 20.9 19 Oeste 29 Oeste 0 -- -- 60
2020-11-28 12:00:00 21.3 16 Oeste 26 Oeste 0 -- -- 56
2020-11-28 11:00:00 20 14 Noroeste 24 Oeste 0 -- -- 66
2020-11-28 10:00:00 18.1 9 Noroeste 18 Sudoeste 0 -- -- 76
2020-11-28 09:00:00 16.4 3 Oeste 9 Sudoeste 0 -- -- 83
2020-11-28 08:00:00 13.8 3 Oeste 4 Oeste 0 -- -- 89
2020-11-28 07:00:00 14.4 0 Calma 13 Noroeste 0 -- -- 87
2020-11-28 06:00:00 14.1 3 Oeste 6 Oeste 0 -- -- 88
2020-11-28 05:00:00 14.7 3 Noroeste 9 Oeste 0 -- -- 83
2020-11-28 04:00:00 14.8 3 Noroeste 9 Noroeste 0 -- -- 80
2020-11-28 03:00:00 14.7 3 Oeste 18 Noroeste 0 -- -- 82
2020-11-28 02:00:00 15.5 9 Norte 22 Norte 0 -- -- 83
2020-11-28 01:00:00 15.1 10 Noroeste 19 Norte 0 -- -- 80
2020-11-28 00:00:00 15.9 13 Noroeste 26 Noroeste 0 -- -- 76
2020-11-27 23:00:00 16.2 14 Noroeste 29 Noroeste 0 -- -- 77
2020-11-27 22:00:00 16.2 12 Noroeste 28 Noroeste 0 -- -- 73
2020-11-27 21:00:00 16.6 17 Noroeste 29 Noroeste 0 -- -- 72
2020-11-27 20:00:00 16.7 19 Noroeste 34 Noroeste 0 -- -- 73
2020-11-27 19:00:00 16.7 19 Noroeste 33 Noroeste 0 -- -- 70
2020-11-27 18:00:00 17.3 21 Noroeste 40 Noroeste 0 -- -- 66
2020-11-27 17:00:00 18.6 27 Noroeste 45 Noroeste 0 -- -- 64
2020-11-27 16:00:00 18.3 29 Noroeste 51 Noroeste 0 -- -- 66
2020-11-27 15:00:00 19.4 35 Noroeste 53 Oeste 0 -- -- 61
2020-11-27 14:00:00 19.5 32 Oeste 47 Oeste 0 -- -- 61
2020-11-27 13:00:00 20 31 Noroeste 47 Oeste 0 -- -- 52
2020-11-27 12:00:00 19.6 29 Noroeste 41 Noroeste 0 -- -- 50
2020-11-27 11:00:00 18.5 26 Noroeste 38 Noroeste 0 -- -- 55
2020-11-27 10:00:00 17.5 22 Noroeste 36 Noroeste 0 -- -- 59
2020-11-27 09:00:00 15.2 17 Noroeste 31 Noroeste 0 -- -- 68
2020-11-27 08:00:00 13.7 10 Noroeste 25 Noroeste 0 -- -- 77
2020-11-27 07:00:00 12.3 10 Noroeste 33 Noroeste 0 -- -- 77
2020-11-27 06:00:00 13.1 15 Noroeste 44 Noroeste 0 -- -- 78
2020-11-27 05:00:00 13.1 17 Noroeste 27 Noroeste 0 -- -- 76
2020-11-27 04:00:00 12.3 11 Noroeste 26 Noroeste 0 -- -- 79
2020-11-27 03:00:00 13.5 17 Noroeste 34 Noroeste 0 -- -- 68
2020-11-27 02:00:00 13.4 16 Noroeste 32 Norte 0 -- -- 71
2020-11-27 01:00:00 12.6 18 Noroeste 27 Oeste 0 -- -- 82
2020-11-27 00:00:00 13.3 13 Noroeste 32 Noroeste 0 -- -- 78
2020-11-26 23:00:00 12.9 15 Noroeste 37 Oeste 0 -- -- 77
2020-11-26 22:00:00 12.9 14 Noroeste 26 Noroeste 0 -- -- 85
2020-11-26 21:00:00 12.4 13 Noroeste 21 Noroeste 0.4 -- -- 87
2020-11-26 20:00:00 12.8 13 Noroeste 30 Noroeste 0 -- -- 79
2020-11-26 19:00:00 13.6 17 Noroeste 43 Noroeste 0 -- -- 79
2020-11-26 18:00:00 15.1 23 Noroeste 50 Noroeste 0 -- -- 63
2020-11-26 17:00:00 15.7 24 Noroeste 64 Norte 0 -- -- 66
2020-11-26 16:00:00 17.6 40 Noroeste 63 Oeste 0 -- -- 55
2020-11-26 15:00:00 17.5 35 Oeste 49 Oeste 0 -- -- 60
2020-11-26 14:00:00 16.8 29 Noroeste 70 Noroeste 0 -- -- 71
2020-11-26 13:00:00 17.1 27 Noroeste 43 Noroeste 0 -- -- 67
2020-11-26 12:00:00 16.5 29 Oeste 50 Oeste 0 -- -- 74
2020-11-26 11:00:00 13.9 25 Noroeste 43 Noroeste 3.2 -- -- 87
2020-11-26 10:00:00 17.8 28 Noroeste 42 Oeste 0 -- -- 56
2020-11-26 09:00:00 16.9 23 Oeste 38 Oeste 0 -- -- 58
2020-11-26 08:00:00 15.1 23 Noroeste 34 Noroeste 0 -- -- 63
2020-11-26 07:00:00 14.9 20 Noroeste 37 Oeste 0 -- -- 63
2020-11-26 06:00:00 14.6 21 Noroeste 37 Noroeste 0 -- -- 62
2020-11-26 05:00:00 14.3 19 Noroeste 37 Noroeste 0 -- -- 65
2020-11-26 04:00:00 14.5 22 Noroeste 36 Oeste 0 -- -- 68
2020-11-26 03:00:00 14.1 22 Noroeste 37 Noroeste 0 -- -- 69
2020-11-26 02:00:00 13.5 20 Oeste 44 Noroeste 0.4 -- -- 77
2020-11-26 01:00:00 15.1 16 Noroeste 30 Noroeste 0 -- -- 68
2020-11-26 00:00:00 15.3 15 Noroeste 34 Noroeste 0 -- -- 69
2020-11-25 23:00:00 15.7 19 Noroeste 34 Noroeste 0 -- -- 64
2020-11-25 22:00:00 15.6 18 Noroeste 38 Noroeste 0 -- -- 83
2020-11-25 21:00:00 16.1 14 Noroeste 33 Noroeste 0 -- -- 84
2020-11-25 20:00:00 16.1 11 Noroeste 42 Noroeste 0 -- -- 80
2020-11-25 19:00:00 16.9 22 Noroeste 45 Norte 0 -- -- 80
2020-11-25 18:00:00 18.6 20 Noroeste 38 Oeste 0 -- -- 77
2020-11-25 17:00:00 20 26 Oeste 36 Oeste 0 -- -- 66
2020-11-25 16:00:00 20.7 24 Oeste 35 Oeste 0 -- -- 63
2020-11-25 15:00:00 21.8 19 Oeste 30 Oeste 0 -- -- 59
2020-11-25 14:00:00 22.3 15 Noroeste 32 Oeste 0 -- -- 55
2020-11-25 13:00:00 22 17 Oeste 26 Oeste 0 -- -- 60
2020-11-25 12:00:00 -- -- -- -- -- -- -- -- --
2020-11-25 11:00:00 21.6 8 Oeste 15 Oeste 0 -- -- 53
2020-11-25 10:00:00 19.9 4 Noroeste 9 Norte 0 -- -- 70
2020-11-25 09:00:00 16.5 3 Norte 5 Nordeste 0 -- -- 90
2020-11-25 08:00:00 14.4 5 Nordeste 9 Este 0 -- -- 91
2020-11-25 07:00:00 13.8 6 Este 9 Sudeste 0 -- -- 89
2020-11-25 06:00:00 13.8 6 Este 11 Este 0 -- -- 83
2020-11-25 05:00:00 13.6 6 Nordeste 9 Este 0 -- -- 65
2020-11-25 04:00:00 14.6 2 Nordeste 7 Sudeste 0 -- -- 65
2020-11-25 03:00:00 16.1 4 Sudeste 11 Sudeste 0 -- -- 50
2020-11-25 02:00:00 15.7 3 Sudeste 5 Sudeste 0 -- -- 83
2020-11-25 01:00:00 15.5 5 Sur 10 Sudeste 0 -- -- 57
2020-11-25 00:00:00 16.3 4 Nordeste 6 Nordeste 0 -- -- 61
2020-11-24 23:00:00 16.1 3 Nordeste 6 Nordeste 0 -- -- 48
2020-11-24 22:00:00 16.6 0 Calma 7 Sudeste 0 -- -- 45
2020-11-24 21:00:00 18.1 5 Nordeste 8 Sudeste 0 -- -- 43
2020-11-24 20:00:00 18 2 Sur 8 Sur 0 -- -- 47
2020-11-24 19:00:00 19.4 3 Norte 10 Noroeste 0 -- -- 46
2020-11-24 18:00:00 20.9 2 Sudoeste 14 Este 0 -- -- 40
2020-11-24 17:00:00 22.6 9 Este 15 Este 0 -- -- 32
2020-11-24 16:00:00 23.2 9 Sudeste 17 Sudeste 0 -- -- 26
2020-11-24 15:00:00 22.9 11 Este 19 Sudeste 0 -- -- 32
2020-11-24 14:00:00 22 10 Este 23 Sudeste 0 -- -- 46
2020-11-24 13:00:00 21.8 15 Este 27 Este 0 -- -- 47
2020-11-24 12:00:00 21.7 21 Sudeste 33 Sudeste 0 -- -- 48
2020-11-24 11:00:00 20.5 23 Sudeste 33 Sudeste 0 -- -- 59
2020-11-24 10:00:00 20.2 12 Este 22 Sudeste 0 -- -- 72
2020-11-24 09:00:00 19.2 12 Este 24 Sudeste 0 -- -- 76
2020-11-24 08:00:00 17.8 14 Este 24 Sudeste 0 -- -- 80
2020-11-24 07:00:00 17.7 18 Sudeste 25 Sudeste 0 -- -- 79
2020-11-24 06:00:00 17.2 8 Este 22 Sudeste 0 -- -- 85
2020-11-24 05:00:00 17.8 18 Sudeste 27 Este 0 -- -- 87
2020-11-24 04:00:00 17.8 11 Este 19 Sudeste 0 -- -- 83
2020-11-24 03:00:00 17.2 9 Este 17 Este 0 -- -- 82
2020-11-24 02:00:00 18.1 11 Este 17 Este 0 -- -- 81
2020-11-24 01:00:00 17.9 8 Este 10 Este 0 -- -- 65
2020-11-24 00:00:00 17.4 5 Este 7 Este 0 -- -- 51
2020-11-23 23:00:00 17.7 5 Este 7 Este 0 -- -- 59
2020-11-23 22:00:00 18.3 4 Este 13 Este 0 -- -- 70
2020-11-23 21:00:00 18 5 Este 9 Nordeste 0 -- -- 66
2020-11-23 20:00:00 18.1 4 Nordeste 10 Este 0 -- -- 58
2020-11-23 19:00:00 19.3 5 Este 9 Nordeste 0 -- -- 52
2020-11-23 18:00:00 21.7 5 Este 9 Este 0 -- -- 41
2020-11-23 17:00:00 23.6 5 Este 18 Sudeste 0 -- -- 32
2020-11-23 16:00:00 23.8 13 Sudeste 22 Este 0 -- -- 31
2020-11-23 15:00:00 24.1 14 Este 26 Sudeste 0 -- -- 34
2020-11-23 14:00:00 24.2 15 Sudeste 29 Sudeste 0 -- -- 33
2020-11-23 13:00:00 23.7 14 Este 31 Este 0 -- -- 41
2020-11-23 12:00:00 22.9 15 Este 27 Este 0 -- -- 46
2020-11-23 11:00:00 21.6 17 Este 28 Este 0 -- -- 51
2020-11-23 10:00:00 20.2 19 Este 33 Sudeste 0 -- -- 77
2020-11-23 09:00:00 18.7 23 Sudeste 36 Sudeste 0 -- -- 89
2020-11-23 08:00:00 17.3 14 Este 27 Este 0 -- -- 92
2020-11-23 07:00:00 17.1 13 Este 28 Sudeste 0 -- -- 93
2020-11-23 06:00:00 17 16 Sudeste 25 Este 0 -- -- 92
2020-11-23 05:00:00 17.1 17 Este 32 Este 0 -- -- 91
2020-11-23 04:00:00 17.2 22 Este 30 Este 0 -- -- 90
2020-11-23 03:00:00 17.7 15 Este 31 Este 0 -- -- 89
2020-11-23 02:00:00 17.9 16 Este 32 Sudeste 0 -- -- 87
2020-11-23 01:00:00 18 22 Este 40 Este 0 -- -- 87
2020-11-23 00:00:00 17.9 17 Este 27 Este 0 -- -- 89
2020-11-22 23:00:00 16.6 6 Este 12 Este 0 -- -- 57
2020-11-22 22:00:00 16.5 4 Este 7 Nordeste 0 -- -- 81
2020-11-22 21:00:00 17 4 Este 17 Este 0 -- -- 82
2020-11-22 20:00:00 17.9 14 Este 21 Nordeste 0 -- -- 87
2020-11-22 19:00:00 18.2 13 Este 25 Este 0 -- -- 84
2020-11-22 18:00:00 18.9 14 Este 25 Este 0 -- -- 80
2020-11-22 17:00:00 20.5 14 Este 27 Este 0 -- -- 73
2020-11-22 16:00:00 21.1 14 Este 28 Este 0 -- -- 68
2020-11-22 15:00:00 21.5 14 Este 27 Sudeste 0 -- -- 69
2020-11-22 14:00:00 21.9 18 Este 29 Sudeste 0 -- -- 65
2020-11-22 13:00:00 22.2 15 Este 29 Este 0 -- -- 65
2020-11-22 12:00:00 21.6 17 Este 27 Este 0 -- -- 69
2020-11-22 11:00:00 21.2 17 Este 27 Este 0 -- -- 71
2020-11-22 10:00:00 20.1 15 Este 27 Este 0 -- -- 75
2020-11-22 09:00:00 19 16 Este 29 Este 0 -- -- 79
2020-11-22 08:00:00 18 21 Este 32 Este 0 -- -- 87
2020-11-22 07:00:00 17.8 18 Este 29 Este 0 -- -- 88
2020-11-22 06:00:00 17.4 12 Este 18 Este 0 -- -- 89
2020-11-22 05:00:00 17.1 6 Este 12 Este 0 -- -- 86
2020-11-22 04:00:00 17.6 8 Este 14 Este 0 -- -- 86
2020-11-22 03:00:00 17.8 3 Este 17 Este 0 -- -- 85
2020-11-22 02:00:00 18 9 Nordeste 17 Nordeste 0 -- -- 86
2020-11-22 01:00:00 18.2 7 Este 15 Nordeste 0 -- -- 86
2020-11-22 00:00:00 18.3 8 Este 15 Este 0 -- -- 75
2020-11-21 23:00:00 18.3 8 Este 13 Este 0 -- -- 68
2020-11-21 22:00:00 18.4 6 Este 13 Este 0 -- -- 64
2020-11-21 21:00:00 18.8 8 Este 15 Este 0 -- -- 56
2020-11-21 20:00:00 18.9 6 Este 13 Este 0 -- -- 45
2020-11-21 19:00:00 19.6 9 Este 14 Este 0 -- -- 50
2020-11-21 18:00:00 21.1 9 Este 22 Este 0 -- -- 43
2020-11-21 17:00:00 22.8 17 Este 31 Este 0 -- -- 36
2020-11-21 16:00:00 23.6 22 Este 36 Este 0 -- -- 33
2020-11-21 15:00:00 24.1 23 Este 36 Este 0 -- -- 32
2020-11-21 14:00:00 24.3 21 Este 33 Este 0 -- -- 32
2020-11-21 13:00:00 24.4 19 Este 32 Este 0 -- -- 36
2020-11-21 12:00:00 24 15 Este 25 Sudeste 0 -- -- 42
2020-11-21 11:00:00 22.6 15 Este 24 Este 0 -- -- 52
2020-11-21 10:00:00 21 15 Este 29 Este 0 -- -- 65
2020-11-21 09:00:00 18.7 21 Este 28 Este 0 -- -- 79
2020-11-21 08:00:00 17.3 20 Este 28 Este 0 -- -- 86
2020-11-21 07:00:00 17.1 18 Este 24 Este 0 -- -- 88
2020-11-21 06:00:00 16.9 13 Este 20 Este 0 -- -- 87
2020-11-21 05:00:00 17.1 15 Este 21 Este 0 -- -- 86
2020-11-21 04:00:00 17.3 13 Este 17 Este 0 -- -- 85
2020-11-21 03:00:00 17.5 10 Este 20 Este 0 -- -- 83
2020-11-21 02:00:00 17.8 14 Este 23 Este 0 -- -- 80
2020-11-21 01:00:00 18.2 18 Este 26 Este 0 -- -- 76
2020-11-21 00:00:00 18.8 18 Este 24 Este 0 -- -- 74
2020-11-20 23:00:00 19.7 14 Este 22 Este 0 -- -- 55
2020-11-20 22:00:00 19.4 9 Este 17 Este 0 -- -- 41
2020-11-20 21:00:00 19.8 9 Este 19 Este 0 -- -- 41
2020-11-20 20:00:00 19.9 13 Este 18 Este 0 -- -- 44
2020-11-20 19:00:00 19.7 4 Este 14 Este 0 -- -- 48
2020-11-20 18:00:00 21 8 Este 25 Sudeste 0 -- -- 49
2020-11-20 17:00:00 23 17 Este 32 Este 0 -- -- 39
2020-11-20 16:00:00 23.8 18 Este 37 Sudeste 0 -- -- 41
2020-11-20 15:00:00 24.7 24 Sudeste 43 Sudeste 0 -- -- 35
2020-11-20 14:00:00 24.6 29 Sudeste 56 Sudeste 0 -- -- 29
2020-11-20 13:00:00 24.2 38 Sudeste 55 Sudeste 0 -- -- 31
2020-11-20 12:00:00 24 31 Sudeste 51 Sudeste 0 -- -- 39
2020-11-20 11:00:00 22.8 33 Sudeste 49 Sudeste 0 -- -- 44
2020-11-20 10:00:00 21.1 32 Sudeste 43 Este 0 -- -- 63
2020-11-20 09:00:00 18.9 26 Sudeste 36 Sudeste 0 -- -- 83
2020-11-20 08:00:00 17.7 26 Sudeste 39 Sudeste 0 -- -- 92
2020-11-20 07:00:00 17.6 25 Sudeste 33 Sudeste 0 -- -- 91
2020-11-20 06:00:00 17.5 15 Este 29 Sudeste 0 -- -- 91
2020-11-20 05:00:00 17.6 18 Sudeste 31 Este 0 -- -- 91
2020-11-20 04:00:00 17.7 19 Este 30 Este 0 -- -- 90
2020-11-20 03:00:00 18.3 15 Este 25 Este 0 -- -- 85
2020-11-20 02:00:00 18.5 13 Este 25 Este 0 -- -- 83
2020-11-20 01:00:00 18.4 12 Este 26 Este 0 -- -- 85
2020-11-20 00:00:00 18 13 Este 24 Este 0 -- -- 86
2020-11-19 23:00:00 18.2 16 Este 22 Este 0 -- -- 85
2020-11-19 22:00:00 18.3 7 Este 19 Este 0 -- -- 85
2020-11-19 21:00:00 18.5 6 Este 21 Nordeste 0 -- -- 84
2020-11-19 20:00:00 18.8 14 Este 28 Este 0 -- -- 83
2020-11-19 19:00:00 19.2 14 Este 26 Este 0 -- -- 83
2020-11-19 18:00:00 19.9 11 Este 26 Este 0 -- -- 80
2020-11-19 17:00:00 21.1 13 Este 30 Este 0 -- -- 73
2020-11-19 16:00:00 22.1 15 Nordeste 32 Nordeste 0 -- -- 69
2020-11-19 15:00:00 22.3 19 Este 33 Nordeste 0 -- -- 66
2020-11-19 14:00:00 22.6 19 Este 31 Nordeste 0 -- -- 66
2020-11-19 13:00:00 22.9 17 Nordeste 28 Nordeste 0 -- -- 64
2020-11-19 12:00:00 23.1 14 Nordeste 29 Nordeste 0 -- -- 60
2020-11-19 11:00:00 22 16 Nordeste 27 Nordeste 0 -- -- 68
2020-11-19 10:00:00 21 14 Nordeste 25 Nordeste 0 -- -- 73
2020-11-19 09:00:00 20.1 14 Norte 24 Norte 0 -- -- 79
2020-11-19 08:00:00 18.9 10 Norte 23 Norte 0 -- -- 86
2020-11-19 07:00:00 18.4 11 Norte 22 Nordeste 0 -- -- 86
2020-11-19 06:00:00 18.5 11 Norte 21 Nordeste 0 -- -- 85
2020-11-19 05:00:00 18.6 13 Norte 22 Norte 0 -- -- 86
2020-11-19 04:00:00 19.1 6 Norte 14 Noroeste 0 -- -- 86
2020-11-19 03:00:00 19.1 4 Sudoeste 19 Norte 0 -- -- 87
2020-11-19 02:00:00 19.2 6 Noroeste 20 Norte 0 -- -- 89
2020-11-19 01:00:00 19.3 9 Noroeste 27 Norte 0 -- -- 90
2020-11-19 00:00:00 18.9 5 Sudoeste 17 Noroeste 0 -- -- 87
2020-11-18 23:00:00 19.4 7 Oeste 18 Oeste 0 -- -- 84
2020-11-18 22:00:00 19.7 6 Norte 16 Noroeste 0 -- -- 84
2020-11-18 21:00:00 19.9 9 Sudoeste 19 Noroeste 0 -- -- 76
2020-11-18 20:00:00 20.9 8 Norte 19 Norte 0 -- -- 66
2020-11-18 19:00:00 21.9 4 Oeste 16 Noroeste 0 -- -- 42
2020-11-18 18:00:00 23.7 5 Noroeste 26 Norte 0 -- -- 37
2020-11-18 17:00:00 24.8 10 Norte 39 Norte 0 -- -- 34
2020-11-18 16:00:00 25.3 18 Norte 39 Noroeste 0 -- -- 49
2020-11-18 15:00:00 29.9 13 Noroeste 25 Noroeste 0 -- -- 28
2020-11-18 14:00:00 31.3 14 Noroeste 23 Noroeste 0 -- -- 24
2020-11-18 13:00:00 31.6 6 Noroeste 16 Noroeste 0 -- -- 23
2020-11-18 12:00:00 30.7 6 Norte 15 Nordeste 0 -- -- 19
2020-11-18 11:00:00 29.8 5 Este 17 Oeste 0 -- -- 20
2020-11-18 10:00:00 27.3 7 Oeste 17 Oeste 0 -- -- 27
2020-11-18 09:00:00 24.7 7 Este 14 Sudeste 0 -- -- 28
2020-11-18 08:00:00 21.2 10 Este 13 Este 0 -- -- 34
2020-11-18 07:00:00 20.6 10 Este 13 Este 0 -- -- 39
2020-11-18 06:00:00 20.2 8 Nordeste 19 Este 0 -- -- 43
2020-11-18 05:00:00 20.5 11 Este 17 Este 0 -- -- 42
2020-11-18 04:00:00 20.9 11 Este 18 Este 0 -- -- 43
2020-11-18 03:00:00 21.2 11 Este 17 Este 0 -- -- 46
2020-11-18 02:00:00 23.3 8 Este 13 Este 0 -- -- 27
2020-11-18 01:00:00 21 6 Este 9 Sudeste 0 -- -- 32
2020-11-18 00:00:00 21.5 2 Este 5 Nordeste 0 -- -- 32
2020-11-17 23:00:00 22 0 Calma 6 Sudeste 0 -- -- 32
2020-11-17 22:00:00 23.1 4 Sudeste 6 Este 0 -- -- 29
2020-11-17 21:00:00 23.4 3 Sudeste 6 Sudeste 0 -- -- 29
2020-11-17 20:00:00 24.4 4 Sudeste 12 Este 0 -- -- 26
2020-11-17 19:00:00 25.4 6 Nordeste 9 Nordeste 0 -- -- 25
2020-11-17 18:00:00 27.7 5 Sudeste 13 Este 0 -- -- 25
2020-11-17 17:00:00 29.7 10 Este 18 Este 0 -- -- 22
2020-11-17 16:00:00 30.2 13 Este 19 Este 0 -- -- 20
2020-11-17 15:00:00 30.1 14 Este 23 Sudeste 0 -- -- 23
2020-11-17 14:00:00 29.9 15 Este 23 Este 0 -- -- 24
2020-11-17 13:00:00 30 17 Este 25 Este 0 -- -- 24
2020-11-17 12:00:00 29.1 13 Este 21 Este 0 -- -- 24
2020-11-17 11:00:00 28.1 14 Este 23 Este 0 -- -- 26
2020-11-17 10:00:00 27.2 12 Este 20 Este 0 -- -- 25
2020-11-17 09:00:00 25.7 8 Sudeste 16 Este 0 -- -- 28
2020-11-17 08:00:00 23 9 Este 16 Este 0 -- -- 31
2020-11-17 07:00:00 22.7 12 Este 20 Este 0 -- -- 32
2020-11-17 06:00:00 21 10 Este 16 Este 0 -- -- 39
2020-11-17 05:00:00 20.9 13 Este 25 Este 0 -- -- 41
2020-11-17 04:00:00 21.7 18 Este 25 Este 0 -- -- 42
2020-11-17 03:00:00 21.5 15 Este 23 Este 0 -- -- 43
2020-11-17 02:00:00 21.3 13 Este 22 Este 0 -- -- 41
2020-11-17 01:00:00 20.9 5 Este 9 Este 0 -- -- 32
2020-11-17 00:00:00 20.4 6 Este 8 Este 0 -- -- 39
2020-11-16 23:00:00 20.6 4 Sudeste 6 Este 0 -- -- 42
2020-11-16 22:00:00 21 3 Este 6 Nordeste 0 -- -- 41
2020-11-16 21:00:00 22.1 0 Calma 6 Este 0 -- -- 42
2020-11-16 20:00:00 22.9 3 Sur 4 Sur 0 -- -- 40
2020-11-16 19:00:00 24.7 0 Calma 4 Sur 0 -- -- 38
2020-11-16 18:00:00 27.4 3 Oeste 18 Oeste 0 -- -- 35
2020-11-16 17:00:00 30.4 14 Sudeste 26 Este 0 -- -- 23
2020-11-16 16:00:00 29.7 4 Norte 13 Oeste 0 -- -- 27
2020-11-16 15:00:00 30.5 9 Sudoeste 21 Sur 0 -- -- 23
2020-11-16 14:00:00 31.3 15 Sur 27 Sudeste 0 -- -- 20
2020-11-16 13:00:00 29.4 18 Sudeste 33 Este 0 -- -- 22
2020-11-16 12:00:00 28.9 19 Sudeste 32 Sudeste 0 -- -- 24
2020-11-16 11:00:00 27.6 18 Este 33 Este 0 -- -- 38
2020-11-16 10:00:00 25.8 12 Este 26 Este 0 -- -- 35
2020-11-16 09:00:00 25.5 10 Este 22 Este 0 -- -- 32
2020-11-16 08:00:00 24.5 14 Este 21 Este 0 -- -- 29
2020-11-16 07:00:00 22.9 16 Este 22 Este 0 -- -- 34
2020-11-16 06:00:00 22.9 13 Este 24 Este 0 -- -- 32
2020-11-16 05:00:00 23.4 11 Este 20 Este 0 -- -- 29
2020-11-16 04:00:00 22.5 11 Este 22 Este 0 -- -- 44
2020-11-16 03:00:00 23.3 12 Este 20 Sudeste 0 -- -- 28
2020-11-16 02:00:00 22.8 9 Nordeste 19 Este 0 -- -- 38
2020-11-16 01:00:00 21.7 11 Este 18 Este 0 -- -- 54
2020-11-16 00:00:00 20.1 8 Nordeste 17 Este 0 -- -- 70
2020-11-15 23:00:00 19.3 7 Nordeste 9 Nordeste 0 -- -- 65
2020-11-15 22:00:00 19.4 0 Calma 5 Nordeste 0 -- -- 57
2020-11-15 21:00:00 21 4 Nordeste 8 Noroeste 0 -- -- 53
2020-11-15 20:00:00 21.8 7 Noroeste 9 Noroeste 0 -- -- 59
2020-11-15 19:00:00 23.5 3 Noroeste 9 Oeste 0 -- -- 61
2020-11-15 18:00:00 25.5 3 Noroeste 7 Noroeste 0 -- -- 57
2020-11-15 17:00:00 26.6 3 Este 15 Este 0 -- -- 51
2020-11-15 16:00:00 28.4 4 Noroeste 8 Oeste 0 -- -- 33
2020-11-15 15:00:00 27.4 0 Calma 10 Nordeste 0 -- -- 42
2020-11-15 14:00:00 26.9 6 Este 14 Oeste 0 -- -- 47
2020-11-15 13:00:00 28.5 4 Noroeste 17 Oeste 0 -- -- 26
2020-11-15 12:00:00 28.6 3 Este 10 Nordeste 0 -- -- 24
2020-11-15 11:00:00 25 4 Nordeste 12 Sudeste 0 -- -- 28
2020-11-15 10:00:00 23.1 6 Este 10 Nordeste 0 -- -- 34
2020-11-15 09:00:00 20.6 4 Este 10 Sudeste 0 -- -- 48
2020-11-15 08:00:00 18.3 5 Nordeste 6 Este 0 -- -- 51
2020-11-15 07:00:00 18.3 5 Oeste 9 Noroeste 0 -- -- 48
2020-11-15 06:00:00 20 4 Noroeste 13 Noroeste 0 -- -- 42
2020-11-15 05:00:00 21.5 4 Norte 14 Noroeste 0 -- -- 36
2020-11-15 04:00:00 22.1 5 Norte 10 Nordeste 0 -- -- 33
2020-11-15 03:00:00 21.8 4 Sudeste 9 Sudeste 0 -- -- 42
2020-11-15 02:00:00 21.8 5 Oeste 12 Oeste 0 -- -- 49
2020-11-15 01:00:00 22.8 7 Oeste 18 Oeste 0 -- -- 37
2020-11-15 00:00:00 23.6 2 Sur 11 Nordeste 0 -- -- 27
2020-11-14 23:00:00 23.4 6 Nordeste 13 Este 0 -- -- 32
2020-11-14 22:00:00 23.7 0 Calma 9 Oeste 0 -- -- 36
2020-11-14 21:00:00 23.5 11 Oeste 24 Oeste 0 -- -- 44
2020-11-14 20:00:00 25.9 8 Oeste 23 Sur 0 -- -- 25
2020-11-14 19:00:00 27.6 16 Sur 27 Sur 0 -- -- 21
2020-11-14 18:00:00 26.6 16 Sudoeste 27 Sur 0 -- -- 34
2020-11-14 17:00:00 29.2 7 Este 28 Sudoeste 0 -- -- 22
2020-11-14 16:00:00 30.6 13 Sur 26 Sur 0 -- -- 20
2020-11-14 15:00:00 30.6 13 Sur 30 Sur 0 -- -- 22
2020-11-14 14:00:00 29.2 20 Sur 33 Sur 0 -- -- 25
2020-11-14 13:00:00 28.2 23 Sur 41 Sur 0 -- -- 29
2020-11-14 12:00:00 28.2 30 Sur 49 Sur 0 -- -- 28
2020-11-14 11:00:00 27.7 31 Sur 49 Sudeste 0 -- -- 30
2020-11-14 10:00:00 27 33 Sur 57 Sur 0 -- -- 31
2020-11-14 09:00:00 27 29 Sur 52 Sur 0 -- -- 31
2020-11-14 08:00:00 27.2 24 Sudeste 47 Sudeste 0 -- -- 32
2020-11-14 07:00:00 27.5 22 Sudeste 46 Sur 0 -- -- 30
2020-11-14 06:00:00 27.6 32 Sudeste 55 Sudeste 0 -- -- 33
2020-11-14 05:00:00 26.2 26 Sur 40 Sur 0 -- -- 36
2020-11-14 04:00:00 22.9 19 Sudeste 40 Sudeste 0 -- -- 55
2020-11-14 03:00:00 21.7 22 Sudeste 33 Este 0 -- -- 66
2020-11-14 02:00:00 22 22 Sudeste 32 Sudeste 0 -- -- 63
2020-11-14 01:00:00 21.1 22 Sudeste 37 Este 0 -- -- 68
2020-11-14 00:00:00 20.2 23 Sudeste 35 Sudeste 0 -- -- 73
2020-11-13 23:00:00 19.6 22 Este 37 Este 0 -- -- 81
2020-11-13 22:00:00 20.5 23 Sudeste 42 Este 0 -- -- 71
2020-11-13 21:00:00 22 26 Sudeste 41 Sudeste 0 -- -- 58
2020-11-13 20:00:00 22.2 25 Sudeste 48 Sudeste 0 -- -- 56
2020-11-13 19:00:00 22.1 28 Sudeste 42 Sudeste 0 -- -- 55
2020-11-13 18:00:00 21.2 24 Sudeste 37 Este 0 -- -- 60
2020-11-13 17:00:00 20.6 27 Sudeste 41 Sudeste 0 -- -- 58
2020-11-13 16:00:00 20.7 23 Sudeste 39 Sudeste 0 -- -- 71
2020-11-13 15:00:00 21.5 23 Sudeste 37 Sudeste 0 -- -- 57
2020-11-13 14:00:00 22.5 16 Este 38 Este 0 -- -- 47
2020-11-13 13:00:00 22.6 23 Este 33 Sudeste 0 -- -- 52
2020-11-13 12:00:00 22 22 Sudeste 32 Este 0 -- -- 61
2020-11-13 11:00:00 20.7 16 Sudeste 31 Sudeste 0 -- -- 78
2020-11-13 10:00:00 19.7 19 Este 31 Este 0 -- -- 80
2020-11-13 09:00:00 19 21 Este 35 Este 0 -- -- 90
2020-11-13 08:00:00 18.5 16 Sudeste 27 Este 0 -- -- 93
2020-11-13 07:00:00 18.5 14 Este 28 Este 0 -- -- 90
2020-11-13 06:00:00 18.5 16 Este 26 Este 0 -- -- 92
2020-11-13 05:00:00 18.5 17 Este 27 Este 0 -- -- 91
2020-11-13 04:00:00 18.4 15 Este 24 Este 0 -- -- 91
2020-11-13 03:00:00 18.4 18 Este 27 Este 0 -- -- 90
2020-11-13 02:00:00 18.3 17 Este 26 Este 0 -- -- 90
2020-11-13 01:00:00 18.3 17 Sudeste 26 Sudeste 0 -- -- 91
2020-11-13 00:00:00 18.4 13 Este 23 Este 0 -- -- 90
2020-11-12 23:00:00 18.6 11 Este 17 Este 0 -- -- 88
2020-11-12 22:00:00 18.7 11 Este 17 Sudeste 0 -- -- 87
2020-11-12 21:00:00 18.9 9 Este 17 Sudeste 0 -- -- 88
2020-11-12 20:00:00 19 12 Este 20 Este 0 -- -- 87
2020-11-12 19:00:00 19.3 12 Este 18 Este 0 -- -- 85
2020-11-12 18:00:00 20.6 9 Este 14 Este 0 -- -- 78
2020-11-12 17:00:00 21.7 7 Este 15 Este 0 -- -- 73
2020-11-12 16:00:00 22.3 8 Este 17 Este 0 -- -- 68
2020-11-12 15:00:00 23.4 13 Este 18 Este 0 -- -- 64
2020-11-12 14:00:00 23.5 4 Este 9 Nordeste 0 -- -- 62
2020-11-12 13:00:00 22.1 6 Este 12 Este 0 -- -- 69
2020-11-12 12:00:00 20.6 9 Sudeste 15 Este 0 -- -- 77
2020-11-12 11:00:00 19.6 7 Sudeste 14 Este 0 -- -- 82
2020-11-12 10:00:00 19.1 5 Este 10 Este 0 -- -- 83
2020-11-12 09:00:00 18.2 0 Calma 8 Oeste 0 -- -- 89
2020-11-12 08:00:00 17.6 0 Calma 7 Este 0 -- -- 88
2020-11-12 07:00:00 17.5 4 Este 12 Sudeste 0 -- -- 88
2020-11-12 06:00:00 17.5 2 Norte 11 Este 0 -- -- 88
2020-11-12 05:00:00 17.6 2 Este 12 Este 0 -- -- 88
2020-11-12 04:00:00 17.6 5 Este 14 Este 0 -- -- 88
2020-11-12 03:00:00 16.7 5 Este 10 Este 0 -- -- 87
2020-11-12 02:00:00 16.1 4 Sudeste 5 Sudeste 0 -- -- 83
2020-11-12 01:00:00 17 3 Sudeste 4 Sudeste 0 -- -- 86
2020-11-12 00:00:00 17.3 0 Calma 6 Oeste 0 -- -- 84
2020-11-11 23:00:00 18 0 Calma 5 Sudoeste 0 -- -- 83
2020-11-11 22:00:00 18.4 2 Sudoeste 6 Nordeste 0 -- -- 81
2020-11-11 21:00:00 18.7 0 Calma 12 Nordeste 0 -- -- 82
2020-11-11 20:00:00 19 6 Norte 17 Noroeste 0 -- -- 81
2020-11-11 19:00:00 19.1 8 Norte 15 Norte 0 -- -- 80
2020-11-11 18:00:00 19.8 6 Norte 13 Norte 0 -- -- 76
2020-11-11 17:00:00 20.8 6 Norte 19 Norte 0 -- -- 71
2020-11-11 16:00:00 21.6 10 Nordeste 20 Norte 0 -- -- 67
2020-11-11 15:00:00 23 10 Nordeste 20 Nordeste 0 -- -- 61
2020-11-11 14:00:00 23.8 6 Nordeste 15 Este 0 -- -- 56
2020-11-11 13:00:00 22.4 9 Este 15 Este 0 -- -- 64
2020-11-11 12:00:00 21.1 8 Este 15 Este 0 -- -- 69
2020-11-11 11:00:00 19.7 13 Este 20 Este 0 -- -- 75
2020-11-11 10:00:00 18.7 15 Este 25 Este 0 -- -- 80
2020-11-11 09:00:00 17.8 15 Este 26 Este 0 -- -- 83
2020-11-11 08:00:00 16.8 11 Este 22 Este 0 -- -- 87
2020-11-11 07:00:00 16.1 8 Este 15 Este 0 -- -- 87
2020-11-11 06:00:00 16.2 7 Este 13 Este 0 -- -- 86
2020-11-11 05:00:00 16.3 8 Este 14 Este 0 -- -- 87
2020-11-11 04:00:00 16.4 9 Este 18 Este 0 -- -- 86
2020-11-11 03:00:00 16.5 8 Este 19 Este 0 -- -- 86
2020-11-11 02:00:00 16.9 11 Este 23 Este 0 -- -- 85
2020-11-11 01:00:00 17 12 Este 22 Este 0 -- -- 85
2020-11-11 00:00:00 17.1 10 Este 20 Este 0 -- -- 85
2020-11-10 23:00:00 17.4 11 Este 24 Nordeste 0 -- -- 84
2020-11-10 22:00:00 17.5 13 Este 23 Este 0 -- -- 84
2020-11-10 21:00:00 17.6 14 Este 27 Nordeste 0 -- -- 83
2020-11-10 20:00:00 17.8 15 Este 28 Nordeste 0 -- -- 82
2020-11-10 19:00:00 18.1 17 Este 27 Este 0 -- -- 81
2020-11-10 18:00:00 18.9 18 Este 33 Este 0 -- -- 77
2020-11-10 17:00:00 19.9 19 Nordeste 30 Nordeste 0 -- -- 71
2020-11-10 16:00:00 21.2 18 Este 33 Nordeste 0 -- -- 62
2020-11-10 15:00:00 20.5 20 Este 36 Nordeste 0 -- -- 66
2020-11-10 14:00:00 21 20 Este 38 Este 0 -- -- 64
2020-11-10 13:00:00 21 23 Este 39 Este 0 -- -- 64
2020-11-10 12:00:00 21.3 24 Este 41 Nordeste 0 -- -- 61
2020-11-10 11:00:00 20.5 22 Nordeste 39 Nordeste 0 -- -- 61
2020-11-10 10:00:00 19.3 24 Nordeste 35 Este 0 -- -- 69
2020-11-10 09:00:00 18.6 16 Nordeste 24 Nordeste 0 -- -- 75
2020-11-10 08:00:00 17.4 10 Nordeste 21 Nordeste 0 -- -- 79
2020-11-10 07:00:00 17.3 12 Nordeste 28 Este 0 -- -- 77
2020-11-10 06:00:00 17.5 13 Nordeste 26 Nordeste 0 -- -- 79
2020-11-10 05:00:00 17.3 15 Nordeste 26 Nordeste 0 -- -- 83
2020-11-10 04:00:00 17.4 13 Nordeste 22 Nordeste 0 -- -- 85
2020-11-10 03:00:00 17.3 12 Nordeste 22 Este 0 -- -- 85
2020-11-10 02:00:00 17.5 12 Nordeste 23 Nordeste 0 -- -- 84
2020-11-10 01:00:00 17.7 13 Nordeste 26 Nordeste 0 -- -- 84
2020-11-10 00:00:00 18.1 17 Nordeste 31 Nordeste 0 -- -- 82
2020-11-09 23:00:00 18.3 17 Nordeste 28 Nordeste 0 -- -- 83
2020-11-09 22:00:00 18.4 17 Nordeste 27 Nordeste 0 -- -- 83
2020-11-09 21:00:00 18.5 15 Nordeste 22 Este 0 -- -- 82
2020-11-09 20:00:00 18.6 14 Nordeste 26 Nordeste 0 -- -- 83
2020-11-09 19:00:00 18.8 17 Nordeste 33 Nordeste 0 -- -- 81
2020-11-09 18:00:00 19.6 19 Nordeste 31 Nordeste 0 -- -- 75
2020-11-09 17:00:00 20.8 17 Nordeste 30 Nordeste 0 -- -- 67
2020-11-09 16:00:00 21.4 17 Este 29 Nordeste 0 -- -- 64
2020-11-09 15:00:00 22 17 Este 29 Este 0 -- -- 61
2020-11-09 14:00:00 21.9 17 Nordeste 28 Este 0 -- -- 62
2020-11-09 13:00:00 21.9 17 Este 28 Este 0 -- -- 60
2020-11-09 12:00:00 21.4 17 Nordeste 30 Nordeste 0 -- -- 63
2020-11-09 11:00:00 20.7 19 Nordeste 30 Nordeste 0 -- -- 65
2020-11-09 10:00:00 19.7 17 Nordeste 26 Nordeste 0 -- -- 73
2020-11-09 09:00:00 17.8 10 Nordeste 17 Nordeste 0 -- -- 85
2020-11-09 08:00:00 13.8 4 Este 5 Este 0 -- -- 92
2020-11-09 07:00:00 13.5 2 Este 4 Este 0 -- -- 90
2020-11-09 06:00:00 13.5 0 Calma 5 Sudeste 0 -- -- 90
2020-11-09 05:00:00 14 3 Este 4 Nordeste 0 -- -- 90
2020-11-09 04:00:00 14.1 3 Este 5 Nordeste 0 -- -- 90
2020-11-09 03:00:00 14.6 3 Sudeste 5 Sudeste 0 -- -- 88
2020-11-09 02:00:00 14.7 2 Este 5 Sudeste 0 -- -- 85
2020-11-09 01:00:00 15.4 3 Este 5 Este 0 -- -- 86
2020-11-09 00:00:00 15.4 2 Nordeste 8 Norte 0 -- -- 84
2020-11-08 23:00:00 15.4 3 Sur 4 Este 0 -- -- 84
2020-11-08 22:00:00 16.6 4 Este 6 Este 0 -- -- 82
2020-11-08 21:00:00 17.3 3 Este 7 Este 0 -- -- 80
2020-11-08 20:00:00 17.8 4 Este 11 Este 0 -- -- 78
2020-11-08 19:00:00 18.6 7 Nordeste 14 Nordeste 0 -- -- 76
2020-11-08 18:00:00 20 9 Nordeste 17 Nordeste 0 -- -- 70
2020-11-08 17:00:00 20.7 11 Nordeste 20 Nordeste 0 -- -- 64
2020-11-08 16:00:00 21.5 11 Nordeste 19 Nordeste 0 -- -- 63
2020-11-08 15:00:00 21.6 11 Norte 24 Norte 0 -- -- 61
2020-11-08 14:00:00 21.6 11 Nordeste 22 Nordeste 0 -- -- 62
2020-11-08 13:00:00 21.7 8 Este 27 Norte 0 -- -- 64
2020-11-08 12:00:00 21.4 6 Este 18 Nordeste 0 -- -- 59
2020-11-08 11:00:00 21 7 Nordeste 18 Nordeste 0 -- -- 65
2020-11-08 10:00:00 19.3 10 Nordeste 18 Nordeste 0 -- -- 77
2020-11-08 09:00:00 18.6 8 Este 14 Nordeste 0 -- -- 84
2020-11-08 08:00:00 15.7 6 Este 9 Este 0 -- -- 93
2020-11-08 07:00:00 15 5 Sudeste 6 Sudeste 0 -- -- 92
2020-11-08 06:00:00 15 4 Este 6 Este 0 -- -- 92
2020-11-08 05:00:00 15.5 4 Este 9 Este 0 -- -- 91
2020-11-08 04:00:00 16 7 Este 9 Este 0 -- -- 90
2020-11-08 03:00:00 16 6 Este 8 Este 0 -- -- 90
2020-11-08 02:00:00 16 4 Este 6 Este 0 -- -- 89
2020-11-08 01:00:00 16.1 4 Este 7 Este 0 -- -- 86
2020-11-08 00:00:00 16.4 3 Este 4 Este 0 -- -- 82
2020-11-07 23:00:00 17 3 Este 8 Este 0 -- -- 82
2020-11-07 22:00:00 17.6 5 Este 10 Este 0 -- -- 81
2020-11-07 21:00:00 18 7 Este 13 Este 0 -- -- 83
2020-11-07 20:00:00 18.3 9 Este 14 Este 0 -- -- 82
2020-11-07 19:00:00 18.9 10 Este 17 Este 0 -- -- 80
2020-11-07 18:00:00 19.8 10 Este 18 Sudeste 0 -- -- 69
2020-11-07 17:00:00 21.3 12 Este 23 Sudeste 0 -- -- 62
2020-11-07 16:00:00 22.1 14 Este 23 Este 0 -- -- 55
2020-11-07 15:00:00 22.8 13 Este 26 Sudeste 0 -- -- 51
2020-11-07 14:00:00 22.5 15 Sudeste 27 Este 0 -- -- 52
2020-11-07 13:00:00 22.9 14 Este 23 Sudeste 0 -- -- 51
2020-11-07 12:00:00 22.7 16 Sudeste 24 Este 0 -- -- 55
2020-11-07 11:00:00 22.4 10 Este 18 Este 0 -- -- 57
2020-11-07 10:00:00 21.2 8 Sudeste 15 Nordeste 0 -- -- 64
2020-11-07 09:00:00 19.1 3 Este 6 Sudeste 0 -- -- 75
2020-11-07 08:00:00 14.3 2 Este 6 Nordeste 0 -- -- 84
2020-11-07 07:00:00 14.1 4 Sudeste 5 Sudeste 0 -- -- 84
2020-11-07 06:00:00 14.5 4 Sudeste 5 Sudeste 0 -- -- 82
2020-11-07 05:00:00 15.4 3 Nordeste 5 Nordeste 0 -- -- 81
2020-11-07 04:00:00 16.3 0 Calma 3 Este 0 -- -- 78
2020-11-07 03:00:00 16.1 0 Calma 4 Este 0 -- -- 76
2020-11-07 02:00:00 15.8 0 Calma 4 Este 0 -- -- 79
2020-11-07 01:00:00 15.7 2 Este 5 Nordeste 0 -- -- 79
2020-11-07 00:00:00 15.8 4 Nordeste 5 Sudeste 0 -- -- 81
2020-11-06 23:00:00 15.9 0 Calma 6 Sudeste 0 -- -- 77
2020-11-06 22:00:00 17.1 2 Nordeste 8 Oeste 0 -- -- 76
2020-11-06 21:00:00 17.7 6 Oeste 10 Oeste 0 -- -- 76
2020-11-06 20:00:00 18.9 6 Oeste 15 Oeste 0 -- -- 73
2020-11-06 19:00:00 19.4 10 Oeste 23 Oeste 0 -- -- 71
2020-11-06 18:00:00 19.9 17 Noroeste 32 Oeste 0 -- -- 72
2020-11-06 17:00:00 21.1 24 Oeste 35 Oeste 0 -- -- 67
2020-11-06 16:00:00 22 27 Oeste 38 Oeste 0 -- -- 65
2020-11-06 15:00:00 21.5 27 Noroeste 51 Oeste 0 -- -- 72
2020-11-06 14:00:00 22.3 27 Oeste 51 Sudoeste 0 -- -- 69
2020-11-06 13:00:00 22.3 39 Sudoeste 56 Oeste 0 -- -- 67
2020-11-06 12:00:00 22.4 38 Sudoeste 60 Sudoeste 0 -- -- 67
2020-11-06 11:00:00 22.5 42 Sudoeste 58 Sudoeste 0 -- -- 64
2020-11-06 10:00:00 21.6 39 Sudoeste 55 Sudoeste 0 -- -- 66
2020-11-06 09:00:00 20.1 37 Sudoeste 50 Sudoeste 0 -- -- 69
2020-11-06 08:00:00 18.6 30 Sudoeste 45 Sudoeste 0 -- -- 74
2020-11-06 07:00:00 17.8 25 Sudoeste 37 Sudoeste 0 -- -- 77
2020-11-06 06:00:00 17.9 24 Sudoeste 40 Sudoeste 0 -- -- 79
2020-11-06 05:00:00 18.1 22 Sudoeste 37 Sudoeste 0 -- -- 79
2020-11-06 04:00:00 18.5 29 Sudoeste 45 Sudoeste 0 -- -- 70
2020-11-06 03:00:00 18.9 30 Sudoeste 48 Sudoeste 0 -- -- 68
2020-11-06 02:00:00 18.4 24 Sur 38 Sudoeste 0 -- -- 77
2020-11-06 01:00:00 18.2 25 Sudoeste 36 Sudoeste 0 -- -- 74
2020-11-06 00:00:00 18.5 18 Sudoeste 27 Sudoeste 0 -- -- 72
2020-11-05 23:00:00 17.7 15 Sur 22 Sur 0 -- -- 76
2020-11-05 22:00:00 17.1 10 Sur 17 Sur 0 -- -- 79
2020-11-05 21:00:00 17.1 3 Nordeste 5 Sudoeste 0 -- -- 74
2020-11-05 20:00:00 17.6 3 Sudeste 5 Sudeste 0 -- -- 73
2020-11-05 19:00:00 18.3 3 Oeste 19 Oeste 0 -- -- 72
2020-11-05 18:00:00 19.5 14 Oeste 26 Oeste 0 -- -- 66
2020-11-05 17:00:00 21.5 18 Oeste 30 Oeste 0 -- -- 56
2020-11-05 16:00:00 22.2 17 Oeste 28 Oeste 0 -- -- 49
2020-11-05 15:00:00 22.9 17 Sudoeste 31 Oeste 0 -- -- 45
2020-11-05 14:00:00 23.1 21 Oeste 31 Sudoeste 0 -- -- 45
2020-11-05 13:00:00 22.5 15 Sudoeste 30 Oeste 0 -- -- 48
2020-11-05 12:00:00 21.8 17 Sudoeste 26 Oeste 0 -- -- 53
2020-11-05 11:00:00 21 14 Oeste 24 Sudoeste 0 -- -- 56
2020-11-05 10:00:00 19.6 13 Sudoeste 23 Sudoeste 0 -- -- 61
2020-11-05 09:00:00 17.6 10 Sudoeste 13 Sudoeste 0 -- -- 69
2020-11-05 08:00:00 13 0 Calma 3 Oeste 0 -- -- 87
2020-11-05 07:00:00 13 0 Calma 5 Sur 0 -- -- 86
2020-11-05 06:00:00 13.1 2 Sur 8 Oeste 0 -- -- 85
2020-11-05 05:00:00 13.5 0 Calma 6 Noroeste 0 -- -- 84
2020-11-05 04:00:00 14.3 0 Calma 3 Oeste 0 -- -- 83
2020-11-05 03:00:00 15.4 2 Oeste 4 Sudoeste 0 -- -- 83
2020-11-05 02:00:00 15.8 2 Oeste 4 Sudoeste 0 -- -- 83
2020-11-05 01:00:00 16.3 0 Calma 5 Sudeste 0 -- -- 81
2020-11-05 00:00:00 16.7 6 Sur 9 Nordeste 0 -- -- 82
2020-11-04 23:00:00 17.2 3 Nordeste 14 Norte 0 -- -- 79
2020-11-04 22:00:00 17.1 4 Norte 12 Nordeste 0 -- -- 79
2020-11-04 21:00:00 17.6 8 Norte 19 Norte 0 -- -- 76
2020-11-04 20:00:00 17.7 9 Norte 24 Norte 0 -- -- 76
2020-11-04 19:00:00 17.9 12 Norte 30 Norte 0 -- -- 76
2020-11-04 18:00:00 18.1 10 Norte 28 Norte 0 -- -- 77
2020-11-04 17:00:00 18.6 16 Norte 27 Norte 0 -- -- 79
2020-11-04 16:00:00 19.1 11 Nordeste 25 Este 0 -- -- 80
2020-11-04 15:00:00 19.1 17 Nordeste 28 Este 0 -- -- 82
2020-11-04 14:00:00 19.3 17 Nordeste 28 Este 0 -- -- 79
2020-11-04 13:00:00 19.6 16 Nordeste 31 Nordeste 0 -- -- 76
2020-11-04 12:00:00 20.1 19 Nordeste 36 Nordeste 0 -- -- 72
2020-11-04 11:00:00 20.4 18 Nordeste 32 Este 0 -- -- 71
2020-11-04 10:00:00 19.4 21 Nordeste 31 Nordeste 0 -- -- 75
2020-11-04 09:00:00 18.8 18 Nordeste 28 Este 0 -- -- 80
2020-11-04 08:00:00 18 12 Nordeste 20 Este 0 -- -- 81
2020-11-04 07:00:00 18 10 Nordeste 19 Nordeste 0 -- -- 81
2020-11-04 06:00:00 18.2 8 Nordeste 19 Nordeste 0 -- -- 82
2020-11-04 05:00:00 18.3 14 Nordeste 24 Nordeste 0 -- -- 83
2020-11-04 04:00:00 18.3 14 Nordeste 29 Este 0 -- -- 84
2020-11-04 03:00:00 18.4 20 Nordeste 32 Nordeste 0 -- -- 84
2020-11-04 02:00:00 18.6 21 Nordeste 37 Nordeste 0 -- -- 85
2020-11-04 01:00:00 18.8 26 Este 40 Este 0 -- -- 84
2020-11-04 00:00:00 19 21 Este 41 Este 0 -- -- 85
2020-11-03 23:00:00 19 24 Este 37 Nordeste 0 -- -- 83
2020-11-03 22:00:00 18.9 23 Este 36 Nordeste 0 -- -- 83
2020-11-03 21:00:00 18.9 17 Este 34 Este 0 -- -- 84
2020-11-03 20:00:00 19 19 Nordeste 31 Nordeste 0 -- -- 84
2020-11-03 19:00:00 19.4 18 Nordeste 31 Nordeste 0 -- -- 82
2020-11-03 18:00:00 20 17 Nordeste 28 Este 0 -- -- 79
2020-11-03 17:00:00 21 16 Nordeste 26 Este 0 -- -- 75
2020-11-03 16:00:00 21.4 16 Nordeste 27 Nordeste 0 -- -- 71
2020-11-03 15:00:00 22 15 Nordeste 30 Nordeste 0 -- -- 68
2020-11-03 14:00:00 22.1 18 Este 32 Nordeste 0 -- -- 67
2020-11-03 13:00:00 22.4 19 Nordeste 36 Nordeste 0 -- -- 67
2020-11-03 12:00:00 21.6 24 Nordeste 34 Nordeste 0 -- -- 68
2020-11-03 11:00:00 20.8 19 Nordeste 32 Nordeste 0 -- -- 74
2020-11-03 10:00:00 19.6 18 Nordeste 29 Nordeste 0 -- -- 79
2020-11-03 09:00:00 19.1 15 Nordeste 28 Este 0 -- -- 81
2020-11-03 08:00:00 18.4 15 Este 25 Este 0 -- -- 85
2020-11-03 07:00:00 17.4 9 Nordeste 17 Nordeste 0 -- -- 86
2020-11-03 06:00:00 17.6 8 Nordeste 17 Nordeste 0 -- -- 85
2020-11-03 05:00:00 17.3 6 Nordeste 11 Nordeste 0 -- -- 87
2020-11-03 04:00:00 16.7 3 Este 9 Sudeste 0 -- -- 87
2020-11-03 03:00:00 17 2 Sur 9 Nordeste 0 -- -- 83
2020-11-03 02:00:00 18.2 5 Norte 10 Norte 0 -- -- 86
2020-11-03 01:00:00 18.1 2 Este 5 Norte 0 -- -- 83
2020-11-03 00:00:00 17.7 0 Calma 5 Nordeste 0 -- -- 84
2020-11-02 23:00:00 18.2 4 Nordeste 11 Nordeste 0 -- -- 83
2020-11-02 22:00:00 18.6 7 Nordeste 11 Nordeste 0 -- -- 82
2020-11-02 21:00:00 19.1 5 Nordeste 15 Nordeste 0 -- -- 81
2020-11-02 20:00:00 19.6 8 Norte 18 Nordeste 0 -- -- 83
2020-11-02 19:00:00 19.9 12 Nordeste 23 Norte 0 -- -- 80
2020-11-02 18:00:00 20.6 13 Norte 23 Norte 0 -- -- 76
2020-11-02 17:00:00 21.5 14 Norte 25 Nordeste 0 -- -- 72
2020-11-02 16:00:00 22 13 Norte 23 Nordeste 0 -- -- 70
2020-11-02 15:00:00 22.1 11 Norte 24 Norte 0 -- -- 71
2020-11-02 14:00:00 22.4 12 Nordeste 24 Nordeste 0 -- -- 70
2020-11-02 13:00:00 22.4 14 Este 23 Nordeste 0 -- -- 70
2020-11-02 12:00:00 21.9 12 Nordeste 24 Este 0 -- -- 70
2020-11-02 11:00:00 20.8 14 Nordeste 24 Nordeste 0 -- -- 75
2020-11-02 10:00:00 19.7 14 Nordeste 23 Nordeste 0 -- -- 80
2020-11-02 09:00:00 18.6 8 Este 12 Nordeste 0 -- -- 84
2020-11-02 08:00:00 16.3 4 Sudeste 7 Sur 0 -- -- 90
2020-11-02 07:00:00 16.1 3 Sudeste 6 Sudeste 0 -- -- 91
2020-11-02 06:00:00 16.8 4 Sudeste 10 Sudeste 0 -- -- 88
2020-11-02 05:00:00 16.3 3 Sudeste 8 Este 0 -- -- 88
2020-11-02 04:00:00 17.2 5 Este 12 Este 0 -- -- 87
2020-11-02 03:00:00 17.8 10 Este 18 Este 0 -- -- 85
2020-11-02 02:00:00 18.1 8 Este 24 Este 0 -- -- 84
2020-11-02 01:00:00 18.4 10 Este 24 Este 0 -- -- 78
2020-11-02 00:00:00 18.5 13 Este 27 Este 0 -- -- 77
2020-11-01 23:00:00 18.3 10 Este 16 Este 0 -- -- 83
2020-11-01 22:00:00 18.6 5 Este 18 Este 0 -- -- 85
2020-11-01 21:00:00 19 12 Este 25 Nordeste 0 -- -- 84
2020-11-01 20:00:00 19.3 17 Este 28 Este 0 -- -- 84
2020-11-01 19:00:00 19.6 15 Este 28 Este 0 -- -- 84
2020-11-01 18:00:00 20.5 19 Este 35 Este 0 -- -- 78
2020-11-01 17:00:00 22.4 23 Este 37 Este 0 -- -- 67
2020-11-01 16:00:00 23.6 24 Este 41 Este 0 -- -- 58
2020-11-01 15:00:00 24.9 26 Este 40 Este 0 -- -- 44
2020-11-01 14:00:00 25.5 23 Este 39 Este 0 -- -- 44
2020-11-01 13:00:00 26.6 24 Este 42 Nordeste 0 -- -- 33
2020-11-01 12:00:00 25.4 28 Nordeste 46 Nordeste 0 -- -- 37
2020-11-01 11:00:00 24.7 30 Nordeste 43 Este 0 -- -- 39
2020-11-01 10:00:00 24.1 24 Nordeste 39 Nordeste 0 -- -- 44
2020-11-01 09:00:00 22.6 23 Nordeste 35 Este 0 -- -- 47
2020-11-01 08:00:00 21.1 24 Nordeste 40 Nordeste 0 -- -- 53
2020-11-01 07:00:00 19.5 15 Este 23 Este 0 -- -- 67
2020-11-01 06:00:00 19.2 13 Nordeste 26 Este 0 -- -- 72
2020-11-01 05:00:00 19.3 14 Nordeste 24 Nordeste 0 -- -- 76
2020-11-01 04:00:00 19.7 10 Este 27 Nordeste 0 -- -- 70
2020-11-01 03:00:00 20.3 14 Este 32 Este 0 -- -- 60
2020-11-01 02:00:00 20.9 18 Nordeste 35 Nordeste 0 -- -- 48
2020-11-01 01:00:00 20.7 20 Nordeste 34 Este 0 -- -- 53
2020-11-01 00:00:00 20.6 15 Nordeste 26 Nordeste 0 -- -- 56
2020-10-31 23:00:00 21.8 11 Este 22 Este 0 -- -- 36
2020-10-31 22:00:00 22 11 Este 22 Este 0 -- -- 39
2020-10-31 21:00:00 22.2 12 Este 22 Este 0 -- -- 41
2020-10-31 20:00:00 22.6 11 Este 18 Este 0 -- -- 39
2020-10-31 19:00:00 23.1 11 Nordeste 18 Este 0 -- -- 37
2020-10-31 18:00:00 24.1 12 Nordeste 18 Nordeste 0 -- -- 42
2020-10-31 17:00:00 26.8 13 Nordeste 25 Este 0 -- -- 31
2020-10-31 16:00:00 28 15 Este 26 Este 0 -- -- 21
2020-10-31 15:00:00 28 15 Este 36 Sudeste 0 -- -- 23
2020-10-31 14:00:00 27.8 21 Este 35 Este 0 -- -- 25
2020-10-31 13:00:00 27.3 24 Este 39 Sudeste 0 -- -- 26
2020-10-31 12:00:00 26.7 24 Este 37 Este 0 -- -- 34
2020-10-31 11:00:00 25.5 23 Este 40 Este 0 -- -- 42
2020-10-31 10:00:00 24.5 24 Este 39 Este 0 -- -- 45
2020-10-31 09:00:00 22.5 25 Este 38 Este 0 -- -- 54
2020-10-31 08:00:00 20 23 Este 33 Este 0 -- -- 68
2020-10-31 07:00:00 19.4 23 Este 38 Este 0 -- -- 77
2020-10-31 06:00:00 19.7 28 Este 38 Este 0 -- -- 75
2020-10-31 05:00:00 19.5 20 Este 38 Este 0 -- -- 72
2020-10-31 04:00:00 19.5 21 Este 34 Este 0 -- -- 75
2020-10-31 03:00:00 19.3 22 Este 35 Sudeste 0 -- -- 82
2020-10-31 02:00:00 19.7 24 Este 39 Este 0 -- -- 83
2020-10-31 01:00:00 21 25 Este 43 Este 0 -- -- 72
2020-10-31 00:00:00 22.5 24 Este 43 Nordeste 0 -- -- 45
2020-10-30 23:00:00 22.7 24 Este 39 Nordeste 0 -- -- 46
2020-10-30 22:00:00 23.1 16 Este 35 Nordeste 0 -- -- 36
2020-10-30 21:00:00 22.7 14 Este 26 Este 0 -- -- 35
2020-10-30 20:00:00 22.6 15 Este 27 Este 0 -- -- 37
2020-10-30 19:00:00 22.6 11 Este 22 Este 0 -- -- 27
2020-10-30 18:00:00 23.2 11 Nordeste 22 Nordeste 0 -- -- 35
2020-10-30 17:00:00 24.7 13 Nordeste 21 Nordeste 0 -- -- 34
2020-10-30 16:00:00 25.8 12 Este 21 Este 0 -- -- 29
2020-10-30 15:00:00 25.9 14 Este 28 Este 0 -- -- 34
2020-10-30 14:00:00 25.8 19 Este 53 Este 0 -- -- 40
2020-10-30 13:00:00 26.7 34 Sudeste 51 Este 0 -- -- 21
2020-10-30 12:00:00 25.7 29 Sudeste 45 Sudeste 0 -- -- 24
2020-10-30 11:00:00 24.7 23 Este 41 Este 0 -- -- 35
2020-10-30 10:00:00 22.6 24 Este 35 Este 0 -- -- 62
2020-10-30 09:00:00 20.7 21 Este 30 Este 0 -- -- 82
2020-10-30 08:00:00 18.9 15 Este 27 Este 0 -- -- 88
2020-10-30 07:00:00 19 18 Este 28 Este 0 -- -- 85
2020-10-30 06:00:00 18.3 15 Sudeste 20 Este 0 -- -- 81
2020-10-30 05:00:00 17.5 7 Este 11 Este 0 -- -- 88
2020-10-30 04:00:00 18.1 3 Sudeste 6 Noroeste 0 -- -- 91
2020-10-30 03:00:00 18.8 0 Calma 9 Oeste 0 -- -- 92
2020-10-30 02:00:00 18.6 2 Noroeste 6 Nordeste 0 -- -- 93
2020-10-30 01:00:00 17.5 0 Calma 5 Sudoeste 0 -- -- 92
2020-10-30 00:00:00 17.8 3 Oeste 4 Oeste 0 -- -- 89